Terminal Aerodrome Forecast
Issued by NWS Pueblo, CO

Home | Current Version | Previous Version | Text Only | Print | Product List | Glossary On
Versions: 1 2 3 4 5 6 7 8 9 10 11 12 13 14 15 16 17 18 19 20 21
000
FTUS45 KPUB 260528
TAFCOS
TAF
KCOS 260528Z 2606/2706 01006KT P6SM SCT100 BKN150
     FM260900 36008KT P6SM BKN090
     FM261300 36015G30KT P6SM VCSH SCT060 BKN100
     FM270200 04006KT P6SM SCT050 BKN080=

USA.gov is the U.S. government's official web portal to all federal, state and local government web resources and services.